sensor_id;sensor_type;location;lat;lon;timestamp;temperature;humidity
54006;DHT22;39919;38.160;-122.260;2023-07-20T00:02:36;24.10;61.20
54006;DHT22;39919;38.160;-122.260;2023-07-20T00:05:06;24.10;60.90
54006;DHT22;39919;38.160;-122.260;2023-07-20T00:07:50;24.00;60.80
54006;DHT22;39919;38.160;-122.260;2023-07-20T01:13:29;23.50;66.80
54006;DHT22;39919;38.160;-122.260;2023-07-20T01:16:04;23.40;65.60
54006;DHT22;39919;38.160;-122.260;2023-07-20T01:18:37;23.30;65.50
54006;DHT22;39919;38.160;-122.260;2023-07-20T01:21:12;23.20;66.10
54006;DHT22;39919;38.160;-122.260;2023-07-20T01:30:33;22.90;69.60
54006;DHT22;39919;38.160;-122.260;2023-07-20T01:33:09;22.90;69.70
54006;DHT22;39919;38.160;-122.260;2023-07-20T01:35:48;22.60;69.50
54006;DHT22;39919;38.160;-122.260;2023-07-20T01:38:28;22.60;70.20
54006;DHT22;39919;38.160;-122.260;2023-07-20T01:41:02;22.50;84.40
54006;DHT22;39919;38.160;-122.260;2023-07-20T01:43:32;22.50;85.40
54006;DHT22;39919;38.160;-122.260;2023-07-20T01:46:05;22.30;87.00
54006;DHT22;39919;38.160;-122.260;2023-07-20T01:48:38;22.30;90.00
54006;DHT22;39919;38.160;-122.260;2023-07-20T01:51:18;22.10;90.80
54006;DHT22;39919;38.160;-122.260;2023-07-20T01:53:50;22.20;89.70
54006;DHT22;39919;38.160;-122.260;2023-07-20T01:56:20;22.10;89.50
54006;DHT22;39919;38.160;-122.260;2023-07-20T01:58:51;22.00;88.60
54006;DHT22;39919;38.160;-122.260;2023-07-20T02:01:22;22.00;88.10
54006;DHT22;39919;38.160;-122.260;2023-07-20T02:03:54;21.90;84.60
54006;DHT22;39919;38.160;-122.260;2023-07-20T02:06:25;21.90;85.50
54006;DHT22;39919;38.160;-122.260;2023-07-20T02:08:57;21.90;90.10
54006;DHT22;39919;38.160;-122.260;2023-07-20T02:11:39;21.80;91.50
54006;DHT22;39919;38.160;-122.260;2023-07-20T02:14:17;21.80;95.30
54006;DHT22;39919;38.160;-122.260;2023-07-20T02:16:47;21.70;95.30
54006;DHT22;39919;38.160;-122.260;2023-07-20T02:19:20;21.60;95.80
54006;DHT22;39919;38.160;-122.260;2023-07-20T02:21:51;21.60;96.10
54006;DHT22;39919;38.160;-122.260;2023-07-20T02:24:20;21.40;97.00
54006;DHT22;39919;38.160;-122.260;2023-07-20T02:26:49;21.40;92.60
54006;DHT22;39919;38.160;-122.260;2023-07-20T02:29:42;21.40;94.30
54006;DHT22;39919;38.160;-122.260;2023-07-20T02:32:13;21.30;91.80
54006;DHT22;39919;38.160;-122.260;2023-07-20T02:34:45;21.20;87.30
54006;DHT22;39919;38.160;-122.260;2023-07-20T02:37:17;21.20;85.50
54006;DHT22;39919;38.160;-122.260;2023-07-20T02:39:46;21.20;84.20
54006;DHT22;39919;38.160;-122.260;2023-07-20T02:42:20;21.20;84.60
54006;DHT22;39919;38.160;-122.260;2023-07-20T02:44:53;21.10;85.30
54006;DHT22;39919;38.160;-122.260;2023-07-20T02:47:26;21.10;90.60
54006;DHT22;39919;38.160;-122.260;2023-07-20T02:49:59;20.90;90.50
54006;DHT22;39919;38.160;-122.260;2023-07-20T02:52:28;20.90;91.80
54006;DHT22;39919;38.160;-122.260;2023-07-20T02:55:06;20.90;91.10
54006;DHT22;39919;38.160;-122.260;2023-07-20T02:57:46;20.80;90.00
54006;DHT22;39919;38.160;-122.260;2023-07-20T03:00:28;20.70;86.10
54006;DHT22;39919;38.160;-122.260;2023-07-20T03:03:01;20.60;87.80
54006;DHT22;39919;38.160;-122.260;2023-07-20T03:05:40;20.50;90.70
54006;DHT22;39919;38.160;-122.260;2023-07-20T03:08:12;20.50;91.80
54006;DHT22;39919;38.160;-122.260;2023-07-20T03:10:46;20.40;94.10
54006;DHT22;39919;38.160;-122.260;2023-07-20T03:13:16;20.30;93.80
54006;DHT22;39919;38.160;-122.260;2023-07-20T03:15:47;20.20;93.80
54006;DHT22;39919;38.160;-122.260;2023-07-20T03:18:17;20.20;94.30
54006;DHT22;39919;38.160;-122.260;2023-07-20T03:20:49;20.00;98.20
54006;DHT22;39919;38.160;-122.260;2023-07-20T03:23:28;20.00;97.90
54006;DHT22;39919;38.160;-122.260;2023-07-20T03:26:06;19.80;98.20
54006;DHT22;39919;38.160;-122.260;2023-07-20T04:22:56;17.70;81.50
54006;DHT22;39919;38.160;-122.260;2023-07-20T05:04:11;17.00;99.60
54006;DHT22;39919;38.160;-122.260;2023-07-20T05:07:05;16.90;99.40
54006;DHT22;39919;38.160;-122.260;2023-07-20T05:09:40;16.80;99.40
54006;DHT22;39919;38.160;-122.260;2023-07-20T05:20:14;16.60;99.70
54006;DHT22;39919;38.160;-122.260;2023-07-20T05:22:54;16.50;99.70
54006;DHT22;39919;38.160;-122.260;2023-07-20T05:25:27;16.50;99.80
54006;DHT22;39919;38.160;-122.260;2023-07-20T05:28:00;16.40;99.90
54006;DHT22;39919;38.160;-122.260;2023-07-20T05:30:36;16.50;99.90
54006;DHT22;39919;38.160;-122.260;2023-07-20T05:34:00;16.40;99.90
54006;DHT22;39919;38.160;-122.260;2023-07-20T05:36:34;16.40;99.90
54006;DHT22;39919;38.160;-122.260;2023-07-20T05:39:42;16.40;99.90
54006;DHT22;39919;38.160;-122.260;2023-07-20T05:44:49;16.20;91.70
54006;DHT22;39919;38.160;-122.260;2023-07-20T05:48:05;16.10;92.10
54006;DHT22;39919;38.160;-122.260;2023-07-20T05:50:21;16.20;92.10
54006;DHT22;39919;38.160;-122.260;2023-07-20T05:53:28;16.10;92.20
54006;DHT22;39919;38.160;-122.260;2023-07-20T05:59:36;16.10;92.30
54006;DHT22;39919;38.160;-122.260;2023-07-20T06:02:20;16.00;92.70
54006;DHT22;39919;38.160;-122.260;2023-07-20T06:04:55;16.00;92.60
54006;DHT22;39919;38.160;-122.260;2023-07-20T06:07:58;16.00;92.70
54006;DHT22;39919;38.160;-122.260;2023-07-20T06:10:51;16.00;93.00
54006;DHT22;39919;38.160;-122.260;2023-07-20T06:13:22;16.00;93.00
54006;DHT22;39919;38.160;-122.260;2023-07-20T06:16:09;15.90;93.20
54006;DHT22;39919;38.160;-122.260;2023-07-20T06:18:47;15.90;93.00
54006;DHT22;39919;38.160;-122.260;2023-07-20T06:21:22;15.90;93.10
54006;DHT22;39919;38.160;-122.260;2023-07-20T06:23:57;15.80;92.90
54006;DHT22;39919;38.160;-122.260;2023-07-20T06:26:32;15.80;93.30
54006;DHT22;39919;38.160;-122.260;2023-07-20T06:29:17;15.80;93.20
54006;DHT22;39919;38.160;-122.260;2023-07-20T06:31:54;15.80;93.30
54006;DHT22;39919;38.160;-122.260;2023-07-20T06:34:29;15.80;93.30
54006;DHT22;39919;38.160;-122.260;2023-07-20T06:37:22;15.80;93.70
54006;DHT22;39919;38.160;-122.260;2023-07-20T06:40:01;15.70;93.70
54006;DHT22;39919;38.160;-122.260;2023-07-20T06:42:47;15.60;93.80
54006;DHT22;39919;38.160;-122.260;2023-07-20T06:45:23;15.60;94.00
54006;DHT22;39919;38.160;-122.260;2023-07-20T06:47:57;15.60;93.90
54006;DHT22;39919;38.160;-122.260;2023-07-20T06:50:28;15.60;93.90
54006;DHT22;39919;38.160;-122.260;2023-07-20T06:53:37;15.60;93.80
54006;DHT22;39919;38.160;-122.260;2023-07-20T06:56:16;15.60;94.00
54006;DHT22;39919;38.160;-122.260;2023-07-20T06:59:03;15.50;93.80
54006;DHT22;39919;38.160;-122.260;2023-07-20T07:01:46;15.50;94.10
54006;DHT22;39919;38.160;-122.260;2023-07-20T07:04:21;15.50;94.20
54006;DHT22;39919;38.160;-122.260;2023-07-20T07:06:51;15.40;94.40
54006;DHT22;39919;38.160;-122.260;2023-07-20T07:09:47;15.50;94.60
54006;DHT22;39919;38.160;-122.260;2023-07-20T07:12:23;15.50;94.50
54006;DHT22;39919;38.160;-122.260;2023-07-20T07:15:02;15.40;94.60
54006;DHT22;39919;38.160;-122.260;2023-07-20T07:17:47;15.40;94.60
54006;DHT22;39919;38.160;-122.260;2023-07-20T07:20:53;15.40;94.60
54006;DHT22;39919;38.160;-122.260;2023-07-20T07:23:38;15.40;94.70
54006;DHT22;39919;38.160;-122.260;2023-07-20T07:26:35;15.40;94.90
54006;DHT22;39919;38.160;-122.260;2023-07-20T07:29:20;15.40;94.90
54006;DHT22;39919;38.160;-122.260;2023-07-20T07:31:54;15.40;94.70
54006;DHT22;39919;38.160;-122.260;2023-07-20T07:34:24;15.40;94.90
54006;DHT22;39919;38.160;-122.260;2023-07-20T07:37:12;15.40;94.80
54006;DHT22;39919;38.160;-122.260;2023-07-20T07:40:16;15.40;94.90
54006;DHT22;39919;38.160;-122.260;2023-07-20T07:42:54;15.30;94.80
54006;DHT22;39919;38.160;-122.260;2023-07-20T07:45:26;15.30;95.00
54006;DHT22;39919;38.160;-122.260;2023-07-20T07:51:24;15.40;95.00
54006;DHT22;39919;38.160;-122.260;2023-07-20T07:54:51;15.30;94.90
54006;DHT22;39919;38.160;-122.260;2023-07-20T07:57:04;15.30;95.10
54006;DHT22;39919;38.160;-122.260;2023-07-20T07:59:52;15.30;95.20
54006;DHT22;39919;38.160;-122.260;2023-07-20T08:02:43;15.40;95.20
54006;DHT22;39919;38.160;-122.260;2023-07-20T08:05:20;15.40;95.30
54006;DHT22;39919;38.160;-122.260;2023-07-20T08:08:11;15.40;95.40
54006;DHT22;39919;38.160;-122.260;2023-07-20T08:10:55;15.40;95.30
54006;DHT22;39919;38.160;-122.260;2023-07-20T08:13:58;15.40;95.10
54006;DHT22;39919;38.160;-122.260;2023-07-20T08:16:37;15.40;95.00
54006;DHT22;39919;38.160;-122.260;2023-07-20T08:19:12;15.40;95.00
54006;DHT22;39919;38.160;-122.260;2023-07-20T08:21:58;15.40;95.20
54006;DHT22;39919;38.160;-122.260;2023-07-20T08:24:28;15.40;95.00
54006;DHT22;39919;38.160;-122.260;2023-07-20T08:27:06;15.40;94.80
54006;DHT22;39919;38.160;-122.260;2023-07-20T08:29:36;15.40;94.80
54006;DHT22;39919;38.160;-122.260;2023-07-20T08:32:15;15.40;95.00
54006;DHT22;39919;38.160;-122.260;2023-07-20T08:34:53;15.40;95.30
54006;DHT22;39919;38.160;-122.260;2023-07-20T08:37:25;15.40;95.40
54006;DHT22;39919;38.160;-122.260;2023-07-20T08:40:02;15.40;95.20
54006;DHT22;39919;38.160;-122.260;2023-07-20T08:42:52;15.40;95.00
54006;DHT22;39919;38.160;-122.260;2023-07-20T08:45:48;15.40;95.20
54006;DHT22;39919;38.160;-122.260;2023-07-20T08:48:21;15.40;95.10
54006;DHT22;39919;38.160;-122.260;2023-07-20T08:51:05;15.40;95.20
54006;DHT22;39919;38.160;-122.260;2023-07-20T08:53:36;15.40;95.20
54006;DHT22;39919;38.160;-122.260;2023-07-20T08:56:24;15.40;95.10
54006;DHT22;39919;38.160;-122.260;2023-07-20T08:58:54;15.40;95.20
54006;DHT22;39919;38.160;-122.260;2023-07-20T09:01:34;15.40;95.30
54006;DHT22;39919;38.160;-122.260;2023-07-20T09:06:56;15.50;95.30
54006;DHT22;39919;38.160;-122.260;2023-07-20T09:09:26;15.50;95.30
54006;DHT22;39919;38.160;-122.260;2023-07-20T09:12:15;15.50;95.10
54006;DHT22;39919;38.160;-122.260;2023-07-20T09:17:51;15.50;94.90
54006;DHT22;39919;38.160;-122.260;2023-07-20T09:20:24;15.60;94.80
54006;DHT22;39919;38.160;-122.260;2023-07-20T09:22:57;15.50;94.80
54006;DHT22;39919;38.160;-122.260;2023-07-20T09:25:27;15.60;94.80
54006;DHT22;39919;38.160;-122.260;2023-07-20T09:28:03;15.60;94.70
54006;DHT22;39919;38.160;-122.260;2023-07-20T09:30:34;15.60;94.60
54006;DHT22;39919;38.160;-122.260;2023-07-20T09:33:12;15.60;94.80
54006;DHT22;39919;38.160;-122.260;2023-07-20T09:35:52;15.60;94.70
54006;DHT22;39919;38.160;-122.260;2023-07-20T09:38:24;15.60;94.70
54006;DHT22;39919;38.160;-122.260;2023-07-20T09:41:08;15.60;94.80
54006;DHT22;39919;38.160;-122.260;2023-07-20T09:43:52;15.70;94.70
54006;DHT22;39919;38.160;-122.260;2023-07-20T09:46:44;15.60;94.50
54006;DHT22;39919;38.160;-122.260;2023-07-20T09:49:19;15.60;94.60
54006;DHT22;39919;38.160;-122.260;2023-07-20T09:51:51;15.60;94.50
54006;DHT22;39919;38.160;-122.260;2023-07-20T09:54:29;15.60;94.60
54006;DHT22;39919;38.160;-122.260;2023-07-20T09:57:21;15.70;94.60
54006;DHT22;39919;38.160;-122.260;2023-07-20T10:00:00;15.60;94.40
54006;DHT22;39919;38.160;-122.260;2023-07-20T10:02:45;15.70;94.40
54006;DHT22;39919;38.160;-122.260;2023-07-20T10:05:18;15.70;94.30
54006;DHT22;39919;38.160;-122.260;2023-07-20T10:07:58;15.70;94.20
54006;DHT22;39919;38.160;-122.260;2023-07-20T10:10:32;15.70;94.20
54006;DHT22;39919;38.160;-122.260;2023-07-20T10:13:13;15.70;94.30
54006;DHT22;39919;38.160;-122.260;2023-07-20T10:15:59;15.70;94.40
54006;DHT22;39919;38.160;-122.260;2023-07-20T10:18:34;15.70;94.10
54006;DHT22;39919;38.160;-122.260;2023-07-20T10:21:20;15.70;94.20
54006;DHT22;39919;38.160;-122.260;2023-07-20T10:27:47;15.70;94.10
54006;DHT22;39919;38.160;-122.260;2023-07-20T10:33:55;15.70;94.00
54006;DHT22;39919;38.160;-122.260;2023-07-20T10:37:00;15.70;94.10
54006;DHT22;39919;38.160;-122.260;2023-07-20T10:48:33;15.70;94.40
54006;DHT22;39919;38.160;-122.260;2023-07-20T10:57:34;15.80;94.50
54006;DHT22;39919;38.160;-122.260;2023-07-20T11:00:22;15.70;94.30
54006;DHT22;39919;38.160;-122.260;2023-07-20T11:03:03;15.70;94.50
54006;DHT22;39919;38.160;-122.260;2023-07-20T11:05:43;15.70;94.40
54006;DHT22;39919;38.160;-122.260;2023-07-20T11:08:48;15.80;94.40
54006;DHT22;39919;38.160;-122.260;2023-07-20T11:11:38;15.70;94.10
54006;DHT22;39919;38.160;-122.260;2023-07-20T11:14:24;15.70;94.20
54006;DHT22;39919;38.160;-122.260;2023-07-20T11:16:56;15.80;94.10
54006;DHT22;39919;38.160;-122.260;2023-07-20T11:19:51;15.70;93.90
54006;DHT22;39919;38.160;-122.260;2023-07-20T11:22:28;15.70;94.00
54006;DHT22;39919;38.160;-122.260;2023-07-20T11:25:10;15.80;94.00
54006;DHT22;39919;38.160;-122.260;2023-07-20T11:27:54;15.80;93.90
54006;DHT22;39919;38.160;-122.260;2023-07-20T11:30:23;15.80;93.90
54006;DHT22;39919;38.160;-122.260;2023-07-20T11:32:58;15.80;93.90
54006;DHT22;39919;38.160;-122.260;2023-07-20T11:35:27;15.80;93.90
54006;DHT22;39919;38.160;-122.260;2023-07-20T11:38:01;15.80;93.70
54006;DHT22;39919;38.160;-122.260;2023-07-20T11:40:35;15.80;93.60
54006;DHT22;39919;38.160;-122.260;2023-07-20T11:43:05;15.80;93.50
54006;DHT22;39919;38.160;-122.260;2023-07-20T11:45:39;15.80;93.40
54006;DHT22;39919;38.160;-122.260;2023-07-20T11:48:15;15.80;93.40
54006;DHT22;39919;38.160;-122.260;2023-07-20T11:50:47;15.90;93.20
54006;DHT22;39919;38.160;-122.260;2023-07-20T11:53:17;15.90;93.30
54006;DHT22;39919;38.160;-122.260;2023-07-20T11:55:50;15.90;93.40
54006;DHT22;39919;38.160;-122.260;2023-07-20T11:58:27;15.90;93.30
54006;DHT22;39919;38.160;-122.260;2023-07-20T12:01:05;15.90;93.30
54006;DHT22;39919;38.160;-122.260;2023-07-20T12:03:49;15.90;93.50
54006;DHT22;39919;38.160;-122.260;2023-07-20T12:06:23;15.90;93.60
54006;DHT22;39919;38.160;-122.260;2023-07-20T12:08:56;15.90;93.60
54006;DHT22;39919;38.160;-122.260;2023-07-20T12:15:11;15.90;93.60
54006;DHT22;39919;38.160;-122.260;2023-07-20T12:17:52;15.90;93.70
54006;DHT22;39919;38.160;-122.260;2023-07-20T12:20:28;15.80;93.50
54006;DHT22;39919;38.160;-122.260;2023-07-20T12:23:05;15.80;93.30
54006;DHT22;39919;38.160;-122.260;2023-07-20T12:25:51;15.90;93.50
54006;DHT22;39919;38.160;-122.260;2023-07-20T12:28:26;15.80;93.50
54006;DHT22;39919;38.160;-122.260;2023-07-20T12:31:02;15.90;93.40
54006;DHT22;39919;38.160;-122.260;2023-07-20T12:33:52;15.90;93.50
54006;DHT22;39919;38.160;-122.260;2023-07-20T12:36:22;15.90;93.50
54006;DHT22;39919;38.160;-122.260;2023-07-20T12:38:54;15.90;93.40
54006;DHT22;39919;38.160;-122.260;2023-07-20T12:41:23;15.90;93.30
54006;DHT22;39919;38.160;-122.260;2023-07-20T12:44:01;15.90;93.50
54006;DHT22;39919;38.160;-122.260;2023-07-20T12:46:35;15.90;93.40
54006;DHT22;39919;38.160;-122.260;2023-07-20T12:49:05;15.90;93.30
54006;DHT22;39919;38.160;-122.260;2023-07-20T12:51:39;15.90;93.30
54006;DHT22;39919;38.160;-122.260;2023-07-20T12:54:13;15.90;93.40
54006;DHT22;39919;38.160;-122.260;2023-07-20T12:56:54;15.90;93.40
54006;DHT22;39919;38.160;-122.260;2023-07-20T12:59:31;15.80;93.50
54006;DHT22;39919;38.160;-122.260;2023-07-20T13:02:08;15.90;93.60
54006;DHT22;39919;38.160;-122.260;2023-07-20T13:04:43;15.90;93.80
54006;DHT22;39919;38.160;-122.260;2023-07-20T13:07:12;15.90;93.90
54006;DHT22;39919;38.160;-122.260;2023-07-20T13:09:51;15.90;93.90
54006;DHT22;39919;38.160;-122.260;2023-07-20T13:12:32;15.80;93.80
54006;DHT22;39919;38.160;-122.260;2023-07-20T13:15:08;15.90;93.80
54006;DHT22;39919;38.160;-122.260;2023-07-20T13:17:51;15.90;93.80
54006;DHT22;39919;38.160;-122.260;2023-07-20T13:20:21;15.90;93.70
54006;DHT22;39919;38.160;-122.260;2023-07-20T13:22:52;15.90;94.00
54006;DHT22;39919;38.160;-122.260;2023-07-20T13:25:22;15.90;94.00
54006;DHT22;39919;38.160;-122.260;2023-07-20T13:27:55;15.90;93.90
54006;DHT22;39919;38.160;-122.260;2023-07-20T13:30:24;15.90;93.70
54006;DHT22;39919;38.160;-122.260;2023-07-20T13:33:05;15.90;93.70
54006;DHT22;39919;38.160;-122.260;2023-07-20T13:35:53;15.90;93.60
54006;DHT22;39919;38.160;-122.260;2023-07-20T13:38:27;15.90;93.50
54006;DHT22;39919;38.160;-122.260;2023-07-20T13:40:58;16.00;93.60
54006;DHT22;39919;38.160;-122.260;2023-07-20T13:43:34;16.00;93.50
54006;DHT22;39919;38.160;-122.260;2023-07-20T13:46:08;16.00;93.50
54006;DHT22;39919;38.160;-122.260;2023-07-20T13:48:39;16.00;93.40
54006;DHT22;39919;38.160;-122.260;2023-07-20T13:51:22;16.00;93.40
54006;DHT22;39919;38.160;-122.260;2023-07-20T13:53:55;16.00;93.20
54006;DHT22;39919;38.160;-122.260;2023-07-20T13:56:26;16.10;93.50
54006;DHT22;39919;38.160;-122.260;2023-07-20T13:58:56;16.10;93.50
54006;DHT22;39919;38.160;-122.260;2023-07-20T14:01:26;16.10;93.40
54006;DHT22;39919;38.160;-122.260;2023-07-20T14:04:03;16.10;93.40
54006;DHT22;39919;38.160;-122.260;2023-07-20T14:06:38;16.10;93.10
54006;DHT22;39919;38.160;-122.260;2023-07-20T14:09:10;16.10;93.30
54006;DHT22;39919;38.160;-122.260;2023-07-20T14:11:48;16.10;93.20
54006;DHT22;39919;38.160;-122.260;2023-07-20T14:14:25;16.10;93.20
54006;DHT22;39919;38.160;-122.260;2023-07-20T14:16:54;16.10;93.20
54006;DHT22;39919;38.160;-122.260;2023-07-20T14:19:28;16.10;93.30
54006;DHT22;39919;38.160;-122.260;2023-07-20T14:22:13;16.10;93.30
54006;DHT22;39919;38.160;-122.260;2023-07-20T14:24:48;16.20;93.10
54006;DHT22;39919;38.160;-122.260;2023-07-20T14:27:20;16.20;93.10
54006;DHT22;39919;38.160;-122.260;2023-07-20T14:30:05;16.20;93.00
54006;DHT22;39919;38.160;-122.260;2023-07-20T14:32:53;16.20;92.80
54006;DHT22;39919;38.160;-122.260;2023-07-20T14:35:33;16.30;92.70
54006;DHT22;39919;38.160;-122.260;2023-07-20T14:38:02;16.20;92.80
54006;DHT22;39919;38.160;-122.260;2023-07-20T14:40:37;16.30;92.70
54006;DHT22;39919;38.160;-122.260;2023-07-20T14:43:15;16.30;92.90
54006;DHT22;39919;38.160;-122.260;2023-07-20T14:45:47;16.30;92.50
54006;DHT22;39919;38.160;-122.260;2023-07-20T14:48:23;16.30;92.50
54006;DHT22;39919;38.160;-122.260;2023-07-20T14:50:54;16.40;92.50
54006;DHT22;39919;38.160;-122.260;2023-07-20T14:53:32;16.40;92.40
54006;DHT22;39919;38.160;-122.260;2023-07-20T14:56:14;16.40;92.20
54006;DHT22;39919;38.160;-122.260;2023-07-20T14:58:49;16.40;92.20
54006;DHT22;39919;38.160;-122.260;2023-07-20T15:01:20;16.50;92.30
54006;DHT22;39919;38.160;-122.260;2023-07-20T15:03:49;16.50;92.20
54006;DHT22;39919;38.160;-122.260;2023-07-20T15:06:23;16.50;92.00
54006;DHT22;39919;38.160;-122.260;2023-07-20T15:08:56;16.60;92.10
54006;DHT22;39919;38.160;-122.260;2023-07-20T15:14:20;16.70;91.80
54006;DHT22;39919;38.160;-122.260;2023-07-20T15:16:52;16.70;91.60
54006;DHT22;39919;38.160;-122.260;2023-07-20T15:19:24;16.80;91.60
54006;DHT22;39919;38.160;-122.260;2023-07-20T15:21:55;16.80;91.40
54006;DHT22;39919;38.160;-122.260;2023-07-20T15:24:28;16.90;91.40
54006;DHT22;39919;38.160;-122.260;2023-07-20T15:27:09;16.90;91.20
54006;DHT22;39919;38.160;-122.260;2023-07-20T15:29:43;17.00;91.10
54006;DHT22;39919;38.160;-122.260;2023-07-20T15:32:18;17.00;91.00
54006;DHT22;39919;38.160;-122.260;2023-07-20T15:34:48;17.00;90.80
54006;DHT22;39919;38.160;-122.260;2023-07-20T15:37:19;17.10;90.70
54006;DHT22;39919;38.160;-122.260;2023-07-20T15:39:51;17.10;90.50
54006;DHT22;39919;38.160;-122.260;2023-07-20T15:42:22;17.20;90.40
54006;DHT22;39919;38.160;-122.260;2023-07-20T15:44:56;17.20;90.50
54006;DHT22;39919;38.160;-122.260;2023-07-20T15:47:44;17.20;90.00
54006;DHT22;39919;38.160;-122.260;2023-07-20T15:50:13;17.30;89.90
54006;DHT22;39919;38.160;-122.260;2023-07-20T15:52:52;17.30;89.80
54006;DHT22;39919;38.160;-122.260;2023-07-20T15:55:26;17.40;89.70
54006;DHT22;39919;38.160;-122.260;2023-07-20T15:57:55;17.40;89.60
54006;DHT22;39919;38.160;-122.260;2023-07-20T16:00:43;17.50;89.20
54006;DHT22;39919;38.160;-122.260;2023-07-20T16:03:14;17.60;89.00
54006;DHT22;39919;38.160;-122.260;2023-07-20T16:05:49;17.60;88.70
54006;DHT22;39919;38.160;-122.260;2023-07-20T16:08:32;17.70;88.60
54006;DHT22;39919;38.160;-122.260;2023-07-20T16:11:06;17.80;88.40
54006;DHT22;39919;38.160;-122.260;2023-07-20T16:13:46;17.90;87.80
54006;DHT22;39919;38.160;-122.260;2023-07-20T16:16:20;17.90;87.40
54006;DHT22;39919;38.160;-122.260;2023-07-20T16:18:57;17.90;87.30
54006;DHT22;39919;38.160;-122.260;2023-07-20T16:21:29;18.00;87.10
54006;DHT22;39919;38.160;-122.260;2023-07-20T16:24:06;18.10;87.00
54006;DHT22;39919;38.160;-122.260;2023-07-20T16:26:36;18.20;86.50
54006;DHT22;39919;38.160;-122.260;2023-07-20T16:29:13;18.30;86.20
54006;DHT22;39919;38.160;-122.260;2023-07-20T16:31:47;18.40;85.60
54006;DHT22;39919;38.160;-122.260;2023-07-20T16:34:19;18.50;85.50
54006;DHT22;39919;38.160;-122.260;2023-07-20T16:37:00;18.60;84.80
54006;DHT22;39919;38.160;-122.260;2023-07-20T16:39:36;18.70;84.50
54006;DHT22;39919;38.160;-122.260;2023-07-20T16:42:07;18.80;83.80
54006;DHT22;39919;38.160;-122.260;2023-07-20T16:44:38;18.90;83.00
54006;DHT22;39919;38.160;-122.260;2023-07-20T16:47:12;19.00;82.80
54006;DHT22;39919;38.160;-122.260;2023-07-20T16:49:53;19.20;93.60
54006;DHT22;39919;38.160;-122.260;2023-07-20T16:52:25;19.20;92.90
54006;DHT22;39919;38.160;-122.260;2023-07-20T16:54:59;19.30;92.40
54006;DHT22;39919;38.160;-122.260;2023-07-20T16:57:34;19.40;91.50
54006;DHT22;39919;38.160;-122.260;2023-07-20T17:00:04;19.60;90.70
54006;DHT22;39919;38.160;-122.260;2023-07-20T17:02:38;19.80;91.50
54006;DHT22;39919;38.160;-122.260;2023-07-20T17:05:11;19.80;91.10
54006;DHT22;39919;38.160;-122.260;2023-07-20T17:07:43;20.00;90.70
54006;DHT22;39919;38.160;-122.260;2023-07-20T17:10:20;20.10;91.30
54006;DHT22;39919;38.160;-122.260;2023-07-20T17:12:51;20.20;92.50
54006;DHT22;39919;38.160;-122.260;2023-07-20T17:15:20;20.30;91.70
54006;DHT22;39919;38.160;-122.260;2023-07-20T17:17:50;20.50;84.20
54006;DHT22;39919;38.160;-122.260;2023-07-20T17:20:20;20.40;77.80
54006;DHT22;39919;38.160;-122.260;2023-07-20T17:22:52;20.60;77.70
54006;DHT22;39919;38.160;-122.260;2023-07-20T17:25:25;20.80;81.40
54006;DHT22;39919;38.160;-122.260;2023-07-20T17:30:35;21.20;76.20
54006;DHT22;39919;38.160;-122.260;2023-07-20T17:33:04;21.40;75.80
54006;DHT22;39919;38.160;-122.260;2023-07-20T17:35:38;21.80;76.00
54006;DHT22;39919;38.160;-122.260;2023-07-20T17:38:11;22.00;75.70
54006;DHT22;39919;38.160;-122.260;2023-07-20T17:40:45;22.40;73.80
54006;DHT22;39919;38.160;-122.260;2023-07-20T17:43:17;22.90;73.40
54006;DHT22;39919;38.160;-122.260;2023-07-20T17:45:52;23.80;80.10
54006;DHT22;39919;38.160;-122.260;2023-07-20T17:48:22;24.60;70.70
54006;DHT22;39919;38.160;-122.260;2023-07-20T17:53:20;26.40;92.20
54006;DHT22;39919;38.160;-122.260;2023-07-20T17:55:54;27.30;93.30
54006;DHT22;39919;38.160;-122.260;2023-07-20T18:00:54;29.90;91.60
54006;DHT22;39919;38.160;-122.260;2023-07-20T18:03:31;30.10;90.70
54006;DHT22;39919;38.160;-122.260;2023-07-20T19:49:45;34.80;44.80
54006;DHT22;39919;38.160;-122.260;2023-07-20T19:52:20;34.40;46.30
54006;DHT22;39919;38.160;-122.260;2023-07-20T19:54:54;33.80;46.60
54006;DHT22;39919;38.160;-122.260;2023-07-20T19:57:31;33.40;47.50
54006;DHT22;39919;38.160;-122.260;2023-07-20T20:00:07;32.90;48.50
54006;DHT22;39919;38.160;-122.260;2023-07-20T20:02:48;32.50;48.70
54006;DHT22;39919;38.160;-122.260;2023-07-20T20:05:17;32.20;48.80
54006;DHT22;39919;38.160;-122.260;2023-07-20T20:08:06;31.90;49.30
54006;DHT22;39919;38.160;-122.260;2023-07-20T20:10:44;31.60;49.70
54006;DHT22;39919;38.160;-122.260;2023-07-20T20:16:36;30.90;50.80
54006;DHT22;39919;38.160;-122.260;2023-07-20T20:19:17;30.60;51.00
54006;DHT22;39919;38.160;-122.260;2023-07-20T20:21:58;30.40;51.40
54006;DHT22;39919;38.160;-122.260;2023-07-20T20:24:41;30.30;51.90
54006;DHT22;39919;38.160;-122.260;2023-07-20T20:27:19;30.10;52.50
54006;DHT22;39919;38.160;-122.260;2023-07-20T20:29:51;30.00;52.80
54006;DHT22;39919;38.160;-122.260;2023-07-20T20:32:25;29.90;52.90
54006;DHT22;39919;38.160;-122.260;2023-07-20T20:35:08;29.90;53.30
54006;DHT22;39919;38.160;-122.260;2023-07-20T20:37:47;29.80;53.40
54006;DHT22;39919;38.160;-122.260;2023-07-20T20:40:36;29.70;53.30
54006;DHT22;39919;38.160;-122.260;2023-07-20T20:43:24;29.60;53.50
54006;DHT22;39919;38.160;-122.260;2023-07-20T20:46:03;29.50;54.10
54006;DHT22;39919;38.160;-122.260;2023-07-20T20:48:48;29.40;54.10
54006;DHT22;39919;38.160;-122.260;2023-07-20T20:57:27;29.10;55.10
54006;DHT22;39919;38.160;-122.260;2023-07-20T21:00:13;29.10;55.20
54006;DHT22;39919;38.160;-122.260;2023-07-20T21:02:47;29.10;55.10
54006;DHT22;39919;38.160;-122.260;2023-07-20T21:05:27;29.10;55.40
54006;DHT22;39919;38.160;-122.260;2023-07-20T21:07:56;29.10;55.30
54006;DHT22;39919;38.160;-122.260;2023-07-20T21:10:27;29.00;55.60
54006;DHT22;39919;38.160;-122.260;2023-07-20T21:13:02;29.00;56.40
54006;DHT22;39919;38.160;-122.260;2023-07-20T21:15:39;29.00;55.50
54006;DHT22;39919;38.160;-122.260;2023-07-20T21:18:24;29.00;55.30
54006;DHT22;39919;38.160;-122.260;2023-07-20T21:21:00;29.00;55.50
54006;DHT22;39919;38.160;-122.260;2023-07-20T21:23:36;29.00;55.50
54006;DHT22;39919;38.160;-122.260;2023-07-20T21:26:11;29.00;55.50